createdAt,value
2019-04-10T00:00:30.982Z,0.00
2019-04-10T00:01:31.917Z,0.00
2019-04-10T00:02:31.331Z,0.00
2019-04-10T00:03:35.465Z,0.00
2019-04-10T00:04:31.489Z,0.00
2019-04-10T00:05:30.577Z,0.00
2019-04-10T00:06:30.497Z,0.00
2019-04-10T00:07:31.244Z,0.00
2019-04-10T00:08:30.407Z,0.00
2019-04-10T00:09:30.728Z,0.00
2019-04-10T00:10:30.174Z,0.00
2019-04-10T00:11:30.094Z,0.00
2019-04-10T00:12:30.012Z,0.00
2019-04-10T00:13:30.765Z,0.00
2019-04-10T00:14:29.852Z,0.00
2019-04-10T00:15:30.631Z,0.00
2019-04-10T00:16:29.894Z,0.00
2019-04-10T00:17:29.609Z,0.00
2019-04-10T00:18:29.832Z,0.00
2019-04-10T00:19:29.451Z,0.00
2019-04-10T00:20:29.371Z,0.00
2019-04-10T00:21:29.299Z,0.00
2019-04-10T00:22:29.219Z,0.00
2019-04-10T00:23:29.129Z,0.00
2019-04-10T00:24:29.969Z,0.00
2019-04-10T00:25:28.973Z,0.00
2019-04-10T00:26:29.727Z,0.00
2019-04-10T00:27:28.809Z,0.00
2019-04-10T00:28:29.641Z,0.00
2019-04-10T00:29:28.645Z,0.00
2019-04-10T00:30:29.153Z,0.00
2019-04-10T00:31:29.696Z,0.00
2019-04-10T00:32:28.403Z,0.00
2019-04-10T00:33:29.088Z,0.00
2019-04-10T00:34:28.248Z,0.00
2019-04-10T00:35:28.171Z,0.00
2019-04-10T00:36:28.886Z,0.00
2019-04-10T00:37:30.294Z,0.00
2019-04-10T00:38:27.921Z,0.00
2019-04-10T00:39:28.705Z,0.00
2019-04-10T00:40:27.755Z,0.00
2019-04-10T00:41:28.171Z,0.00
2019-04-10T00:42:27.597Z,0.00
2019-04-10T00:43:27.672Z,0.00
2019-04-10T00:44:27.901Z,0.00
2019-04-10T00:45:27.353Z,0.00
2019-04-10T00:46:28.325Z,0.00
2019-04-10T00:47:27.195Z,0.00
2019-04-10T00:48:27.955Z,0.00
2019-04-10T00:49:27.034Z,0.00
2019-04-10T00:50:26.971Z,0.00
2019-04-10T00:51:27.599Z,0.00
2019-04-10T00:52:26.785Z,0.00
2019-04-10T00:53:27.329Z,0.00
2019-04-10T00:54:26.795Z,0.00
2019-04-10T00:55:26.547Z,0.00
2019-04-10T00:56:26.470Z,0.00
2019-04-10T00:57:27.450Z,0.00
2019-04-10T00:58:26.312Z,0.00
2019-04-10T00:59:26.248Z,0.00
2019-04-10T01:00:26.150Z,0.00
2019-04-10T01:01:26.073Z,0.00
2019-04-10T01:02:26.879Z,0.00
2019-04-10T01:03:25.920Z,0.00
2019-04-10T01:04:26.600Z,0.00
2019-04-10T01:05:25.739Z,0.00
2019-04-10T01:06:26.186Z,0.00
2019-04-10T01:07:34.503Z,0.00
2019-04-10T01:08:26.498Z,0.00
2019-04-10T01:09:25.656Z,0.00
2019-04-10T01:10:26.251Z,0.00
2019-04-10T01:11:25.279Z,0.00
2019-04-10T01:12:25.175Z,0.00
2019-04-10T01:13:25.097Z,0.00
2019-04-10T01:14:25.501Z,0.00
2019-04-10T01:15:24.930Z,0.00
2019-04-10T01:16:25.098Z,0.00
2019-04-10T01:17:24.770Z,0.00
2019-04-10T01:18:24.690Z,0.00
2019-04-10T01:19:24.606Z,0.00
2019-04-10T01:20:24.527Z,0.00
2019-04-10T01:21:24.449Z,0.00
2019-04-10T01:22:25.319Z,0.00
2019-04-10T01:23:24.605Z,0.00
2019-04-10T01:24:24.203Z,0.00
2019-04-10T01:25:24.242Z,0.00
2019-04-10T01:26:24.042Z,0.00
2019-04-10T01:27:23.955Z,0.00
2019-04-10T01:28:24.777Z,0.00
2019-04-10T01:29:23.801Z,0.00
2019-04-10T01:30:24.348Z,0.00
2019-04-10T01:31:23.637Z,0.00
2019-04-10T01:32:23.824Z,0.00
2019-04-10T01:33:23.477Z,0.00
2019-04-10T01:34:23.394Z,0.00
2019-04-10T01:35:24.457Z,0.00
2019-04-10T01:36:23.231Z,0.00
2019-04-10T01:37:23.154Z,0.00
2019-04-10T01:38:23.072Z,0.00
2019-04-10T01:39:22.985Z,0.00
2019-04-10T01:40:23.405Z,0.00
2019-04-10T01:41:23.791Z,0.00
2019-04-10T01:42:22.887Z,0.00
2019-04-10T01:43:22.664Z,0.00
2019-04-10T01:44:30.898Z,0.00
2019-04-10T01:46:26.883Z,0.00
2019-04-10T01:47:26.950Z,0.00
2019-04-10T01:49:31.565Z,0.00
2019-04-10T01:50:30.995Z,0.00
2019-04-10T01:52:35.444Z,0.00
2019-04-10T01:53:35.646Z,0.00
2019-04-10T01:54:35.376Z,0.00
2019-04-10T01:55:35.758Z,0.00
2019-04-10T01:56:36.434Z,0.00
2019-04-10T01:57:34.871Z,0.00
2019-04-10T01:58:34.949Z,0.00
2019-04-10T01:59:34.714Z,0.00
2019-04-10T02:00:41.790Z,0.00
2019-04-10T02:02:39.133Z,0.00
2019-04-10T02:03:38.372Z,0.00
2019-04-10T02:04:38.266Z,0.00
2019-04-10T02:05:38.776Z,0.00
2019-04-10T02:06:38.105Z,0.00
2019-04-10T02:07:38.259Z,0.00
2019-04-10T02:08:38.206Z,0.00
2019-04-10T02:09:37.858Z,0.00
2019-04-10T02:10:38.416Z,0.00
2019-04-10T02:11:37.699Z,0.00
2019-04-10T02:12:37.615Z,0.00
2019-04-10T02:13:37.534Z,0.00
2019-04-10T02:14:38.378Z,0.00
2019-04-10T02:15:38.389Z,0.00
2019-04-10T02:16:37.289Z,0.00
2019-04-10T02:17:37.205Z,0.00
2019-04-10T02:18:37.320Z,0.00
2019-04-10T02:19:37.043Z,0.00
2019-04-10T02:20:36.961Z,0.00
2019-04-10T02:21:37.954Z,0.00
2019-04-10T02:22:36.796Z,0.00
2019-04-10T02:23:36.717Z,0.00
2019-04-10T02:24:36.636Z,0.00
2019-04-10T02:25:36.936Z,0.00
2019-04-10T02:26:36.479Z,0.00
2019-04-10T02:27:36.391Z,0.00
2019-04-10T02:28:37.441Z,0.00
2019-04-10T02:29:36.226Z,0.00
2019-04-10T02:30:37.360Z,0.00
2019-04-10T02:31:36.640Z,0.00
2019-04-10T02:32:37.166Z,0.00
2019-04-10T02:33:35.899Z,0.00
2019-04-10T02:34:36.956Z,0.00
2019-04-10T02:35:36.182Z,0.00
2019-04-10T02:36:36.277Z,0.00
2019-04-10T02:37:37.202Z,0.00
2019-04-10T02:38:50.845Z,0.00
2019-04-10T02:39:41.959Z,0.00
2019-04-10T02:40:35.332Z,0.00
2019-04-10T02:41:36.411Z,0.00
2019-04-10T02:42:35.163Z,0.00
2019-04-10T02:43:35.950Z,0.00
2019-04-10T02:44:35.490Z,0.00
2019-04-10T02:45:36.429Z,0.00
2019-04-10T02:46:34.839Z,0.00
2019-04-10T02:47:34.867Z,0.00
2019-04-10T02:48:36.050Z,0.00
2019-04-10T02:49:36.293Z,0.00
2019-04-10T02:50:35.396Z,0.00
2019-04-10T02:51:35.052Z,0.00
2019-04-10T02:52:35.047Z,0.00
2019-04-10T02:53:35.186Z,0.00
2019-04-10T02:54:35.724Z,0.00
2019-04-10T02:55:35.550Z,0.00
2019-04-10T02:56:34.364Z,0.00
2019-04-10T02:57:35.658Z,0.00
2019-04-10T02:58:34.400Z,0.00
2019-04-10T02:59:35.068Z,0.00
2019-04-10T03:00:33.935Z,0.00
2019-04-10T03:01:33.647Z,0.00
2019-04-10T03:02:33.713Z,0.00
2019-04-10T03:03:34.241Z,0.00
2019-04-10T03:04:35.065Z,0.00
2019-04-10T03:05:34.639Z,0.00
2019-04-10T03:06:33.597Z,0.00
2019-04-10T03:07:33.852Z,0.00
2019-04-10T03:08:44.581Z,0.00
2019-04-10T03:09:44.461Z,0.00
2019-04-10T03:10:41.286Z,0.00
2019-04-10T03:11:33.063Z,0.00
2019-04-10T03:12:34.012Z,0.00
2019-04-10T03:13:33.702Z,0.00
2019-04-10T03:14:32.781Z,0.00
2019-04-10T03:15:33.781Z,0.00
2019-04-10T03:16:32.390Z,0.00
2019-04-10T03:17:33.232Z,0.00
2019-04-10T03:18:32.672Z,0.00
2019-04-10T03:19:32.142Z,0.00
2019-04-10T03:20:32.239Z,0.00
2019-04-10T03:21:32.002Z,0.00
2019-04-10T03:22:32.524Z,0.00
2019-04-10T03:23:31.818Z,0.00
2019-04-10T03:24:31.735Z,0.00
2019-04-10T03:25:31.661Z,0.00
2019-04-10T03:26:32.020Z,0.00
2019-04-10T03:27:31.491Z,0.00
2019-04-10T03:28:32.130Z,0.00
2019-04-10T03:29:31.638Z,0.00
2019-04-10T03:30:32.473Z,0.00
2019-04-10T03:31:32.510Z,0.00
2019-04-10T03:32:36.253Z,0.00
2019-04-10T03:33:33.016Z,0.00
2019-04-10T03:34:33.446Z,0.00
2019-04-10T03:35:30.840Z,0.00
2019-04-10T03:36:31.555Z,0.00
2019-04-10T03:37:30.674Z,0.00
2019-04-10T03:38:30.594Z,0.00
2019-04-10T03:39:33.346Z,0.00
2019-04-10T03:40:31.367Z,0.00
2019-04-10T03:41:30.361Z,0.00
2019-04-10T03:42:30.736Z,0.00
2019-04-10T03:43:30.183Z,0.00
2019-04-10T03:44:30.456Z,0.00
2019-04-10T03:45:30.753Z,0.00
2019-04-10T03:46:29.942Z,0.00
2019-04-10T03:47:29.858Z,0.00
2019-04-10T03:48:29.777Z,0.00
2019-04-10T03:49:29.748Z,0.00
2019-04-10T03:50:29.998Z,0.00
2019-04-10T03:51:30.331Z,0.00
2019-04-10T03:52:29.446Z,0.00
2019-04-10T03:53:29.957Z,0.00
2019-04-10T03:54:30.147Z,0.00
2019-04-10T03:55:29.300Z,0.00
2019-04-10T03:56:29.716Z,0.00
2019-04-10T03:57:29.044Z,0.00
2019-04-10T03:58:28.959Z,0.00
2019-04-10T03:59:28.878Z,0.00
2019-04-10T04:00:29.765Z,0.00
2019-04-10T04:01:29.107Z,0.00
2019-04-10T04:02:29.496Z,0.00
2019-04-10T04:03:28.743Z,0.00
2019-04-10T04:04:29.192Z,0.00
2019-04-10T04:05:28.814Z,0.00
2019-04-10T04:06:28.304Z,0.00
2019-04-10T04:07:28.336Z,0.00
2019-04-10T04:08:28.145Z,0.00
2019-04-10T04:09:29.298Z,0.00
2019-04-10T04:10:28.787Z,4.00
2019-04-10T04:11:27.897Z,4.00
2019-04-10T04:12:28.790Z,0.00
2019-04-10T04:13:27.956Z,4.00
2019-04-10T04:14:28.471Z,4.00
2019-04-10T04:15:28.193Z,4.00
2019-04-10T04:16:27.485Z,4.00
2019-04-10T04:17:28.322Z,8.00
2019-04-10T04:18:27.323Z,12.00
2019-04-10T04:19:28.237Z,8.00
2019-04-10T04:20:27.159Z,16.00
2019-04-10T04:21:27.878Z,16.00
2019-04-10T04:22:26.993Z,16.00
2019-04-10T04:23:27.758Z,20.00
2019-04-10T04:24:28.026Z,20.00
2019-04-10T04:25:26.756Z,28.00
2019-04-10T04:26:28.110Z,32.00
2019-04-10T04:27:27.110Z,32.00
2019-04-10T04:28:26.503Z,40.00
2019-04-10T04:29:26.900Z,44.00
2019-04-10T04:30:26.333Z,52.00
2019-04-10T04:31:27.061Z,56.00
2019-04-10T04:32:26.181Z,64.00
2019-04-10T04:33:26.094Z,72.00
2019-04-10T04:34:27.109Z,76.00
2019-04-10T04:35:25.927Z,84.00
2019-04-10T04:36:26.709Z,96.00
2019-04-10T04:37:25.953Z,104.00
2019-04-10T04:38:25.706Z,112.00
2019-04-10T04:39:27.385Z,124.00
2019-04-10T04:40:25.912Z,132.00
2019-04-10T04:41:25.436Z,144.00
2019-04-10T04:42:26.462Z,156.00
2019-04-10T04:43:25.276Z,168.00
2019-04-10T04:44:25.191Z,176.00
2019-04-10T04:45:25.674Z,192.00
2019-04-10T04:46:26.017Z,204.00
2019-04-10T04:47:24.949Z,220.00
2019-04-10T04:48:24.863Z,232.00
2019-04-10T04:49:24.779Z,248.00
2019-04-10T04:50:24.783Z,264.00
2019-04-10T04:51:25.819Z,276.00
2019-04-10T04:52:24.534Z,296.00
2019-04-10T04:53:24.451Z,308.00
2019-04-10T04:54:25.399Z,324.00
2019-04-10T04:55:24.286Z,340.00
2019-04-10T04:56:24.212Z,364.00
2019-04-10T04:57:24.565Z,380.00
2019-04-10T04:58:24.348Z,404.00
2019-04-10T04:59:23.991Z,428.00
2019-04-10T05:00:23.874Z,456.00
2019-04-10T05:01:23.799Z,480.00
2019-04-10T05:02:23.707Z,504.00
2019-04-10T05:03:25.555Z,528.00
2019-04-10T05:04:23.576Z,552.00
2019-04-10T05:05:23.465Z,580.00
2019-04-10T05:06:24.367Z,604.00
2019-04-10T05:07:23.301Z,624.00
2019-04-10T05:08:23.892Z,644.00
2019-04-10T05:09:31.139Z,676.00
2019-04-10T05:10:23.049Z,716.00
2019-04-10T05:11:22.972Z,756.00
2019-04-10T05:12:23.517Z,792.00
2019-04-10T05:13:22.808Z,824.00
2019-04-10T05:14:23.699Z,860.00
2019-04-10T05:15:22.682Z,892.00
2019-04-10T05:16:22.753Z,924.00
2019-04-10T05:17:22.479Z,956.00
2019-04-10T05:18:23.181Z,988.00
2019-04-10T05:19:22.316Z,1020.00
2019-04-10T05:20:23.195Z,1052.00
2019-04-10T05:21:23.180Z,1080.00
2019-04-10T05:22:22.350Z,1132.00
2019-04-10T05:23:22.386Z,1152.00
2019-04-10T05:24:22.050Z,1184.00
2019-04-10T05:25:21.824Z,1216.00
2019-04-10T05:26:22.734Z,1252.00
2019-04-10T05:27:22.607Z,1284.00
2019-04-10T05:28:22.184Z,1316.00
2019-04-10T05:29:21.708Z,1348.00
2019-04-10T05:30:21.414Z,1376.00
2019-04-10T05:31:21.485Z,1412.00
2019-04-10T05:32:21.542Z,1440.00
2019-04-10T05:33:21.173Z,1472.00
2019-04-10T05:34:22.006Z,1512.00
2019-04-10T05:35:21.002Z,1540.00
2019-04-10T05:36:21.599Z,1572.00
2019-04-10T05:37:21.302Z,1612.00
2019-04-10T05:38:20.873Z,1644.00
2019-04-10T05:39:20.673Z,1688.00
2019-04-10T05:40:20.713Z,1732.00
2019-04-10T05:41:21.711Z,1752.00
2019-04-10T05:42:20.641Z,1772.00
2019-04-10T05:43:20.350Z,1808.00
2019-04-10T05:44:20.270Z,1836.00
2019-04-10T05:45:21.159Z,1860.00
2019-04-10T05:46:21.524Z,1880.00
2019-04-10T05:47:20.022Z,1904.00
2019-04-10T05:48:22.464Z,1940.00
2019-04-10T05:49:20.645Z,1972.00
2019-04-10T05:50:19.776Z,2012.00
2019-04-10T05:51:19.693Z,2044.00
2019-04-10T05:52:20.339Z,2084.00
2019-04-10T05:53:20.403Z,2124.00
2019-04-10T05:54:19.443Z,2152.00
2019-04-10T05:55:20.405Z,2168.00
2019-04-10T05:56:20.548Z,2172.00
2019-04-10T05:57:20.173Z,2168.00
2019-04-10T05:58:19.626Z,2136.00
2019-04-10T05:59:19.596Z,2124.00
2019-04-10T06:00:18.998Z,2136.00
2019-04-10T06:01:29.967Z,2160.00
2019-04-10T06:02:18.929Z,2180.00
2019-04-10T06:03:18.716Z,2184.00
2019-04-10T06:04:18.989Z,2196.00
2019-04-10T06:05:18.554Z,2188.00
2019-04-10T06:06:18.470Z,2176.00
2019-04-10T06:07:19.162Z,2196.00
2019-04-10T06:08:18.306Z,2208.00
2019-04-10T06:09:18.474Z,2208.00
2019-04-10T06:10:18.144Z,2244.00
2019-04-10T06:11:18.066Z,2216.00
2019-04-10T06:12:18.177Z,2228.00
2019-04-10T06:13:17.909Z,2248.00
2019-04-10T06:14:17.892Z,2256.00
2019-04-10T06:15:18.973Z,2268.00
2019-04-10T06:16:17.658Z,2288.00
2019-04-10T06:17:18.397Z,2292.00
2019-04-10T06:18:18.630Z,2332.00
2019-04-10T06:19:17.867Z,2364.00
2019-04-10T06:20:17.517Z,2404.00
2019-04-10T06:21:17.249Z,2456.00
2019-04-10T06:22:17.167Z,2512.00
2019-04-10T06:23:17.109Z,2584.00
2019-04-10T06:24:18.218Z,2652.00
2019-04-10T06:25:18.840Z,2708.00
2019-04-10T06:26:17.173Z,2764.00
2019-04-10T06:27:16.757Z,2804.00
2019-04-10T06:28:16.999Z,2848.00
2019-04-10T06:29:17.093Z,2900.00
2019-04-10T06:30:17.500Z,2936.00
2019-04-10T06:31:16.644Z,2984.00
2019-04-10T06:32:17.058Z,3044.00
2019-04-10T06:33:16.272Z,3092.00
2019-04-10T06:34:18.610Z,3132.00
2019-04-10T06:35:16.112Z,3160.00
2019-04-10T06:36:16.029Z,3180.00
2019-04-10T06:37:15.964Z,3200.00
2019-04-10T06:38:16.875Z,3224.00
2019-04-10T06:39:16.426Z,3256.00
2019-04-10T06:40:19.763Z,3296.00
2019-04-10T06:41:17.341Z,3344.00
2019-04-10T06:42:16.341Z,3364.00
2019-04-10T06:43:15.453Z,3392.00
2019-04-10T06:44:15.372Z,3400.00
2019-04-10T06:45:15.558Z,3448.00
2019-04-10T06:46:15.210Z,3456.00
2019-04-10T06:47:15.129Z,3456.00
2019-04-10T06:48:15.114Z,3436.00
2019-04-10T06:49:14.966Z,3456.00
2019-04-10T06:50:14.900Z,3428.00
2019-04-10T06:51:15.966Z,3432.00
2019-04-10T06:52:14.721Z,3412.00
2019-04-10T06:53:16.191Z,3436.00
2019-04-10T06:54:14.581Z,3460.00
2019-04-10T06:55:15.374Z,3472.00
2019-04-10T06:56:14.394Z,3500.00
2019-04-10T06:57:14.639Z,3540.00
2019-04-10T06:58:14.229Z,3584.00
2019-04-10T06:59:14.215Z,3616.00
2019-04-10T07:00:16.493Z,3656.00
2019-04-10T07:01:14.748Z,3676.00
2019-04-10T07:02:21.961Z,3764.00
2019-04-10T07:03:14.867Z,3796.00
2019-04-10T07:04:13.749Z,3796.00
2019-04-10T07:05:14.980Z,3868.00
2019-04-10T07:06:18.651Z,3908.00
2019-04-10T07:07:15.783Z,3904.00
2019-04-10T07:08:18.940Z,3952.00
2019-04-10T07:09:13.778Z,3984.00
2019-04-10T07:10:22.542Z,4020.00
2019-04-10T07:11:13.630Z,4080.00
2019-04-10T07:12:14.289Z,4168.00
2019-04-10T07:13:13.496Z,4232.00
2019-04-10T07:14:14.319Z,4256.00
2019-04-10T07:15:12.850Z,4260.00
2019-04-10T07:16:12.794Z,4356.00
2019-04-10T07:17:14.248Z,4388.00
2019-04-10T07:18:17.011Z,4388.00
2019-04-10T07:19:13.159Z,4404.00
2019-04-10T07:20:15.385Z,4476.00
2019-04-10T07:21:12.564Z,4432.00
2019-04-10T07:22:14.205Z,3952.00
2019-04-10T07:23:14.544Z,4624.00
2019-04-10T07:24:13.739Z,4572.00
2019-04-10T07:25:13.151Z,4612.00
2019-04-10T07:26:14.501Z,4660.00
2019-04-10T07:27:12.007Z,4760.00
2019-04-10T07:28:12.500Z,4864.00
2019-04-10T07:29:15.586Z,4904.00
2019-04-10T07:30:11.929Z,4992.00
2019-04-10T07:31:11.677Z,5008.00
2019-04-10T07:32:12.312Z,5060.00
2019-04-10T07:33:14.845Z,5104.00
2019-04-10T07:34:11.311Z,5160.00
2019-04-10T07:35:13.989Z,5156.00
2019-04-10T07:36:13.648Z,5096.00
2019-04-10T07:37:14.694Z,5072.00
2019-04-10T07:38:11.814Z,5108.00
2019-04-10T07:39:10.903Z,5136.00
2019-04-10T07:40:10.823Z,5232.00
2019-04-10T07:41:17.061Z,5272.00
2019-04-10T07:42:11.643Z,5324.00
2019-04-10T07:43:11.190Z,5260.00
2019-04-10T07:44:10.496Z,5364.00
2019-04-10T07:45:10.429Z,5392.00
2019-04-10T07:46:10.345Z,5460.00
2019-04-10T07:47:11.171Z,5460.00
2019-04-10T07:48:10.746Z,5504.00
2019-04-10T07:49:10.584Z,5496.00
2019-04-10T07:50:10.298Z,5660.00
2019-04-10T07:51:09.935Z,5744.00
2019-04-10T07:52:10.539Z,5676.00
2019-04-10T07:53:10.484Z,5720.00
2019-04-10T07:54:09.694Z,5688.00
2019-04-10T07:55:09.646Z,5728.00
2019-04-10T07:56:14.865Z,5716.00
2019-04-10T07:57:09.452Z,5584.00
2019-04-10T07:58:09.374Z,5460.00
2019-04-10T07:59:09.293Z,5424.00
2019-04-10T08:00:09.218Z,5504.00
2019-04-10T08:01:09.858Z,5552.00
2019-04-10T08:02:10.111Z,5584.00
2019-04-10T08:03:18.755Z,5584.00
2019-04-10T08:05:13.325Z,5572.00
2019-04-10T08:06:13.204Z,5496.00
2019-04-10T08:08:17.490Z,5256.00
2019-04-10T08:09:17.418Z,5268.00
2019-04-10T08:11:21.905Z,5304.00
2019-04-10T08:12:21.627Z,5296.00
2019-04-10T08:13:22.556Z,5208.00
2019-04-10T08:14:21.776Z,5232.00
2019-04-10T08:15:21.388Z,5212.00
2019-04-10T08:16:21.305Z,5132.00
2019-04-10T08:17:21.798Z,5096.00
2019-04-10T08:18:21.203Z,5088.00
2019-04-10T08:19:21.065Z,5076.00
2019-04-10T08:20:21.978Z,5016.00
2019-04-10T08:21:21.863Z,4972.00
2019-04-10T08:22:20.825Z,4928.00
2019-04-10T08:23:21.746Z,4816.00
2019-04-10T08:24:20.677Z,4724.00
2019-04-10T08:25:20.601Z,4660.00
2019-04-10T08:26:21.384Z,4668.00
2019-04-10T08:27:21.330Z,4592.00
2019-04-10T08:28:20.344Z,4652.00
2019-04-10T08:29:20.264Z,4656.00
2019-04-10T08:30:20.181Z,4624.00
2019-04-10T08:31:22.175Z,4540.00
2019-04-10T08:32:20.032Z,4528.00
2019-04-10T08:33:19.941Z,4468.00
2019-04-10T08:34:19.863Z,4436.00
2019-04-10T08:35:20.809Z,4440.00
2019-04-10T08:36:19.702Z,4392.00
2019-04-10T08:37:20.640Z,4364.00
2019-04-10T08:38:19.650Z,4328.00
2019-04-10T08:39:32.211Z,4304.00
2019-04-10T08:40:19.378Z,4300.00
2019-04-10T08:41:19.304Z,4300.00
2019-04-10T08:42:19.217Z,4344.00
2019-04-10T08:43:20.129Z,4436.00
2019-04-10T08:44:19.956Z,4536.00
2019-04-10T08:45:19.031Z,4624.00
2019-04-10T08:46:19.788Z,4688.00
2019-04-10T08:47:19.369Z,4768.00
2019-04-10T08:48:18.734Z,4860.00
2019-04-10T08:49:18.701Z,4964.00
2019-04-10T08:50:19.641Z,4972.00
2019-04-10T08:51:19.201Z,5028.00
2019-04-10T08:52:18.415Z,5016.00
2019-04-10T08:53:18.332Z,5048.00
2019-04-10T08:54:18.488Z,5108.00
2019-04-10T08:55:18.173Z,5212.00
2019-04-10T08:56:18.451Z,5264.00
2019-04-10T08:57:18.303Z,5292.00
2019-04-10T08:58:18.835Z,5344.00
2019-04-10T08:59:17.848Z,5388.00
2019-04-10T09:00:18.609Z,5520.00
2019-04-10T09:01:17.693Z,5480.00
2019-04-10T09:02:18.034Z,5600.00
2019-04-10T09:03:17.532Z,5636.00
2019-04-10T09:04:17.871Z,5616.00
2019-04-10T09:05:17.539Z,5716.00
2019-04-10T09:06:17.500Z,5832.00
2019-04-10T09:07:17.208Z,5852.00
2019-04-10T09:08:17.142Z,5880.00
2019-04-10T09:09:17.337Z,5964.00
2019-04-10T09:10:16.967Z,6032.00
2019-04-10T09:11:25.444Z,6120.00
2019-04-10T09:12:17.793Z,6164.00
2019-04-10T09:13:16.820Z,6216.00
2019-04-10T09:14:17.056Z,6300.00
2019-04-10T09:15:16.563Z,6324.00
2019-04-10T09:16:16.489Z,6420.00
2019-04-10T09:17:17.333Z,6512.00
2019-04-10T09:18:16.843Z,6628.00
2019-04-10T09:19:16.260Z,6692.00
2019-04-10T09:20:16.377Z,6760.00
2019-04-10T09:21:16.087Z,6832.00
2019-04-10T09:22:16.249Z,6964.00
2019-04-10T09:23:25.120Z,7016.00
2019-04-10T09:24:15.864Z,7100.00
2019-04-10T09:25:16.575Z,7132.00
2019-04-10T09:26:15.692Z,7176.00
2019-04-10T09:27:15.615Z,7320.00
2019-04-10T09:28:16.109Z,7536.00
2019-04-10T09:29:16.087Z,7608.00
2019-04-10T09:30:16.420Z,7572.00
2019-04-10T09:31:15.671Z,7672.00
2019-04-10T09:32:15.214Z,7744.00
2019-04-10T09:33:21.520Z,7804.00
2019-04-10T09:34:15.815Z,7956.00
2019-04-10T09:35:16.178Z,7988.00
2019-04-10T09:36:15.182Z,8012.00
2019-04-10T09:37:15.646Z,8024.00
2019-04-10T09:38:14.735Z,8020.00
2019-04-10T09:39:14.949Z,8040.00
2019-04-10T09:40:14.581Z,8048.00
2019-04-10T09:41:14.495Z,8060.00
2019-04-10T09:42:14.913Z,8032.00
2019-04-10T09:43:14.447Z,8032.00
2019-04-10T09:44:14.466Z,8052.00
2019-04-10T09:45:14.179Z,8092.00
2019-04-10T09:46:14.102Z,8120.00
2019-04-10T09:47:14.269Z,8168.00
2019-04-10T09:48:13.946Z,8228.00
2019-04-10T09:49:14.401Z,8304.00
2019-04-10T09:50:13.787Z,8368.00
2019-04-10T09:51:16.179Z,8400.00
2019-04-10T09:52:14.568Z,8316.00
2019-04-10T09:53:13.548Z,8396.00
2019-04-10T09:54:13.469Z,8516.00
2019-04-10T09:55:13.885Z,8612.00
2019-04-10T09:56:13.646Z,8680.00
2019-04-10T09:57:13.318Z,8828.00
2019-04-10T09:58:13.276Z,8996.00
2019-04-10T09:59:13.866Z,9244.00
2019-04-10T10:00:13.768Z,9480.00
2019-04-10T10:01:14.726Z,9700.00
2019-04-10T10:02:13.280Z,9916.00
2019-04-10T10:03:12.762Z,10168.00
2019-04-10T10:04:13.243Z,10364.00
2019-04-10T10:05:12.683Z,10592.00
2019-04-10T10:09:02.220Z,11264.00
2019-04-10T10:09:41.169Z,11420.00
2019-04-10T10:11:45.467Z,11728.00
2019-04-10T10:12:45.366Z,11900.00
2019-04-10T10:14:49.672Z,12200.00
2019-04-10T10:15:49.589Z,12300.00
2019-04-10T10:19:25.974Z,12516.00
2019-04-10T10:20:25.935Z,12480.00
2019-04-10T10:22:29.385Z,12484.00
2019-04-10T10:23:29.710Z,12500.00
2019-04-10T10:25:32.839Z,12588.00
2019-04-10T10:26:32.977Z,12680.00
2019-04-10T10:27:32.679Z,12788.00
2019-04-10T10:28:33.204Z,12924.00
2019-04-10T10:29:33.548Z,12988.00
2019-04-10T10:30:33.717Z,13024.00
2019-04-10T10:31:32.552Z,13072.00
2019-04-10T10:32:33.038Z,13108.00
2019-04-10T10:33:32.217Z,13088.00
2019-04-10T10:34:32.136Z,13068.00
2019-04-10T10:35:32.063Z,13056.00
2019-04-10T10:36:39.602Z,13104.00
2019-04-10T10:37:32.620Z,13188.00
2019-04-10T10:38:31.828Z,13276.00
2019-04-10T10:39:31.758Z,13352.00
2019-04-10T10:40:31.879Z,13432.00
2019-04-10T10:41:31.928Z,13464.00
2019-04-10T10:42:31.741Z,13476.00
2019-04-10T10:43:32.186Z,13492.00
2019-04-10T10:44:32.260Z,13552.00
2019-04-10T10:45:31.287Z,13540.00
2019-04-10T10:46:31.490Z,13580.00
2019-04-10T10:47:31.135Z,13592.00
2019-04-10T10:48:31.582Z,13584.00
2019-04-10T10:49:30.980Z,13608.00
2019-04-10T10:50:31.170Z,13636.00
2019-04-10T10:51:30.907Z,13588.00
2019-04-10T10:52:31.356Z,13488.00
2019-04-10T10:53:30.672Z,13476.00
2019-04-10T10:54:30.597Z,13480.00
2019-04-10T10:55:31.752Z,13448.00
2019-04-10T10:56:30.730Z,13384.00
2019-04-10T10:57:31.152Z,13288.00
2019-04-10T10:58:30.288Z,13304.00
2019-04-10T10:59:30.439Z,13300.00
2019-04-10T11:00:31.340Z,13232.00
2019-04-10T11:01:30.058Z,13256.00
2019-04-10T11:02:30.012Z,13404.00
2019-04-10T11:03:30.034Z,13508.00
2019-04-10T11:04:29.828Z,13580.00
2019-04-10T11:05:31.758Z,13684.00
2019-04-10T11:06:29.676Z,13932.00
2019-04-10T11:07:31.029Z,14180.00
2019-04-10T11:08:29.570Z,14644.00
2019-04-10T11:09:30.184Z,14988.00
2019-04-10T11:10:30.030Z,15024.00
2019-04-10T11:11:30.673Z,15280.00
2019-04-10T11:12:30.386Z,15476.00
2019-04-10T11:13:29.139Z,15684.00
2019-04-10T11:14:29.905Z,15812.00
2019-04-10T11:15:29.009Z,16120.00
2019-04-10T11:16:29.352Z,16264.00
2019-04-10T11:17:29.767Z,16428.00
2019-04-10T11:18:28.763Z,16616.00
2019-04-10T11:19:29.051Z,16876.00
2019-04-10T11:20:29.741Z,17504.00
2019-04-10T11:21:28.531Z,23712.00
2019-04-10T11:22:29.009Z,35552.00
2019-04-10T11:23:28.580Z,38816.00
2019-04-10T11:24:28.307Z,43392.00
2019-04-10T11:25:28.610Z,46528.00
2019-04-10T11:26:30.089Z,46528.00
2019-04-10T11:27:28.414Z,44288.00
2019-04-10T11:28:30.275Z,44384.00
2019-04-10T11:29:28.758Z,46304.00
2019-04-10T11:30:28.739Z,44224.00
2019-04-10T11:31:29.083Z,42848.00
2019-04-10T11:32:28.943Z,45344.00
2019-04-10T11:33:27.647Z,48896.00
2019-04-10T11:34:29.222Z,49568.00
2019-04-10T11:35:28.915Z,50112.00
2019-04-10T11:36:28.224Z,48320.00
2019-04-10T11:37:37.563Z,46720.00
2019-04-10T11:38:27.366Z,48064.00
2019-04-10T11:39:29.366Z,49504.00
2019-04-10T11:40:27.997Z,43040.00
2019-04-10T11:41:29.493Z,51712.00
2019-04-10T11:42:28.819Z,50464.00
2019-04-10T11:43:27.894Z,51296.00
2019-04-10T11:44:27.616Z,52704.00
2019-04-10T11:45:29.800Z,55520.00
2019-04-10T11:46:31.060Z,52896.00
2019-04-10T11:47:26.900Z,50560.00
2019-04-10T11:48:29.087Z,52544.00
2019-04-10T11:49:27.692Z,54112.00
2019-04-10T11:50:28.069Z,54624.00
2019-04-10T11:51:30.133Z,44256.00
2019-04-10T11:52:34.690Z,38912.00
2019-04-10T11:53:27.235Z,50560.00
2019-04-10T11:54:28.567Z,50880.00
2019-04-10T11:55:27.919Z,51040.00
2019-04-10T11:56:26.859Z,50048.00
2019-04-10T11:57:27.059Z,47616.00
2019-04-10T11:58:28.950Z,48224.00
2019-04-10T11:59:26.253Z,34752.00
2019-04-10T12:00:28.758Z,36224.00
2019-04-10T12:01:25.766Z,39584.00
2019-04-10T12:02:27.622Z,45664.00
2019-04-10T12:03:27.014Z,43712.00
2019-04-10T12:04:26.258Z,42528.00
2019-04-10T12:05:27.138Z,44800.00
2019-04-10T12:06:28.737Z,48032.00
2019-04-10T12:07:54.775Z,47168.00
2019-04-10T12:08:45.166Z,44928.00
2019-04-10T12:10:06.515Z,42624.00
2019-04-10T12:11:25.115Z,44288.00
2019-04-10T12:12:25.832Z,41280.00
2019-04-10T12:13:26.095Z,44864.00
2019-04-10T12:14:25.670Z,45408.00
2019-04-10T12:15:25.830Z,31840.00
2019-04-10T12:16:25.190Z,44672.00
2019-04-10T12:17:25.617Z,39296.00
2019-04-10T12:18:24.730Z,33664.00
2019-04-10T12:19:25.142Z,31264.00
2019-04-10T12:20:24.967Z,33888.00
2019-04-10T12:21:24.447Z,28384.00
2019-04-10T12:22:24.385Z,27616.00
2019-04-10T12:23:25.125Z,30944.00
2019-04-10T12:24:24.255Z,36928.00
2019-04-10T12:25:24.965Z,37376.00
2019-04-10T12:26:24.118Z,38880.00
2019-04-10T12:27:25.143Z,35712.00
2019-04-10T12:28:23.988Z,35392.00
2019-04-10T12:29:24.669Z,31424.00
2019-04-10T12:30:23.848Z,34144.00
2019-04-10T12:31:23.892Z,40000.00
2019-04-10T12:32:23.713Z,41792.00
2019-04-10T12:33:23.649Z,47008.00
2019-04-10T12:34:24.347Z,50880.00
2019-04-10T12:35:24.638Z,53440.00
2019-04-10T12:36:24.489Z,56000.00
2019-04-10T12:37:23.619Z,55392.00
2019-04-10T12:38:23.461Z,56640.00
2019-04-10T12:39:23.240Z,55616.00
2019-04-10T12:40:23.184Z,38688.00
2019-04-10T12:41:23.493Z,33728.00
2019-04-10T12:42:23.921Z,32128.00
2019-04-10T12:43:23.219Z,33888.00